createdAt,value
2019-03-13T00:01:33.169Z,11.63
2019-03-13T00:04:23.455Z,11.63
2019-03-13T00:07:13.356Z,11.63
2019-03-13T00:10:03.149Z,11.64
2019-03-13T00:12:54.482Z,11.65
2019-03-13T00:15:44.591Z,11.62
2019-03-13T00:18:34.496Z,11.63
2019-03-13T00:21:24.678Z,11.68
2019-03-13T00:24:15.134Z,11.68
2019-03-13T00:27:05.016Z,11.67
2019-03-13T00:29:54.825Z,11.68
2019-03-13T00:32:44.746Z,11.67
2019-03-13T00:35:34.835Z,11.67
2019-03-13T00:38:24.582Z,11.66
2019-03-13T00:41:14.301Z,11.68
2019-03-13T00:44:04.404Z,11.69
2019-03-13T00:46:54.513Z,11.71
2019-03-13T00:49:44.345Z,11.73
2019-03-13T00:52:34.319Z,11.71
2019-03-13T00:55:24.159Z,11.69
2019-03-13T00:58:13.631Z,11.64
2019-03-13T01:01:14.762Z,11.68
2019-03-13T01:04:35.743Z,11.68
2019-03-13T01:07:26.579Z,11.66
2019-03-13T01:10:16.806Z,11.61
2019-03-13T01:13:06.843Z,11.62
2019-03-13T01:15:56.418Z,11.61
2019-03-13T01:18:46.531Z,11.50
2019-03-13T01:21:36.343Z,11.35
2019-03-13T01:24:26.458Z,11.27
2019-03-13T01:27:16.607Z,11.09
2019-03-13T01:30:07.707Z,11.07
2019-03-13T01:33:03.449Z,11.02
2019-03-13T01:35:57.480Z,10.98
2019-03-13T01:38:47.020Z,10.97
2019-03-13T01:41:37.103Z,10.93
2019-03-13T01:44:26.956Z,10.89
2019-03-13T01:47:16.847Z,10.90
2019-03-13T01:50:06.937Z,10.87
2019-03-13T01:52:57.152Z,10.85
2019-03-13T01:55:47.297Z,10.89
2019-03-13T01:58:37.176Z,10.95
2019-03-13T02:01:27.170Z,10.93
2019-03-13T02:04:17.418Z,10.97
2019-03-13T02:07:07.502Z,10.97
2019-03-13T02:09:57.414Z,10.98
2019-03-13T02:12:47.182Z,10.98
2019-03-13T02:15:37.094Z,10.92
2019-03-13T02:18:26.992Z,10.92
2019-03-13T02:21:16.860Z,10.75
2019-03-13T02:24:07.069Z,10.82
2019-03-13T02:26:56.870Z,10.78
2019-03-13T02:29:47.217Z,10.81
2019-03-13T02:32:36.916Z,10.92
2019-03-13T02:35:27.008Z,10.89
2019-03-13T02:38:16.480Z,10.88
2019-03-13T02:41:07.673Z,10.84
2019-03-13T02:43:57.810Z,10.87
2019-03-13T02:46:48.052Z,10.88
2019-03-13T02:49:38.205Z,10.86
2019-03-13T02:52:28.247Z,10.84
2019-03-13T02:55:18.280Z,10.75
2019-03-13T02:58:08.331Z,10.71
2019-03-13T03:01:16.099Z,10.62
2019-03-13T03:04:08.096Z,10.60
2019-03-13T03:06:57.866Z,10.43
2019-03-13T03:09:47.258Z,10.33
2019-03-13T03:12:37.076Z,10.34
2019-03-13T03:15:26.941Z,10.30
2019-03-13T03:18:17.206Z,10.19
2019-03-13T03:21:07.157Z,10.11
2019-03-13T03:23:57.148Z,9.98
2019-03-13T03:26:46.935Z,9.88
2019-03-13T03:29:38.905Z,9.83
2019-03-13T03:32:28.623Z,9.65
2019-03-13T03:35:18.397Z,9.60
2019-03-13T03:38:08.125Z,9.49
2019-03-13T03:40:57.758Z,9.48
2019-03-13T03:43:48.915Z,9.34
2019-03-13T03:46:38.826Z,9.32
2019-03-13T03:49:28.728Z,9.29
2019-03-13T03:52:18.387Z,9.24
2019-03-13T03:55:08.479Z,9.09
2019-03-13T03:57:58.565Z,9.02
2019-03-13T04:00:48.451Z,8.94
2019-03-13T04:03:38.240Z,8.89
2019-03-13T04:06:28.223Z,8.82
2019-03-13T04:09:18.107Z,8.79
2019-03-13T04:12:08.018Z,8.76
2019-03-13T04:14:58.153Z,8.66
2019-03-13T04:17:48.167Z,8.66
2019-03-13T04:20:37.730Z,8.64
2019-03-13T04:23:27.833Z,8.60
2019-03-13T04:26:17.647Z,8.51
2019-03-13T04:29:07.803Z,8.49
2019-03-13T04:31:57.436Z,8.43
2019-03-13T04:34:47.272Z,8.37
2019-03-13T04:37:37.435Z,8.31
2019-03-13T04:40:27.094Z,8.30
2019-03-13T04:43:16.999Z,8.25
2019-03-13T04:46:06.850Z,8.20
2019-03-13T04:48:56.295Z,8.20
2019-03-13T04:51:46.352Z,8.12
2019-03-13T04:54:36.159Z,8.13
2019-03-13T04:57:26.190Z,8.10
2019-03-13T05:00:16.599Z,8.10
2019-03-13T05:03:06.670Z,8.01
2019-03-13T05:05:59.907Z,7.97
2019-03-13T05:09:33.996Z,7.94
2019-03-13T05:12:23.835Z,8.00
2019-03-13T05:15:13.998Z,7.95
2019-03-13T05:18:03.965Z,7.89
2019-03-13T05:20:54.025Z,7.87
2019-03-13T05:23:44.208Z,7.87
2019-03-13T05:26:34.448Z,7.75
2019-03-13T05:29:24.459Z,7.74
2019-03-13T05:32:14.166Z,7.75
2019-03-13T05:35:03.876Z,7.73
2019-03-13T05:37:53.723Z,7.74
2019-03-13T05:40:43.704Z,7.66
2019-03-13T05:43:33.392Z,7.66
2019-03-13T05:46:23.478Z,7.63
2019-03-13T05:49:13.929Z,7.59
2019-03-13T05:52:03.392Z,7.52
2019-03-13T05:54:53.119Z,7.52
2019-03-13T05:57:43.119Z,7.56
2019-03-13T06:00:33.577Z,7.60
2019-03-13T06:03:23.510Z,7.64
2019-03-13T06:06:13.387Z,7.77
2019-03-13T06:09:04.616Z,7.92
2019-03-13T06:11:54.617Z,8.09
2019-03-13T06:14:44.890Z,8.26
2019-03-13T06:17:34.637Z,8.46
2019-03-13T06:20:24.607Z,8.65
2019-03-13T06:23:14.788Z,8.80
2019-03-13T06:26:04.686Z,9.02
2019-03-13T06:28:54.583Z,9.23
2019-03-13T06:31:44.328Z,9.44
2019-03-13T06:34:34.773Z,9.23
2019-03-13T06:37:25.023Z,9.89
2019-03-13T06:40:14.990Z,10.19
2019-03-13T06:43:04.891Z,10.66
2019-03-13T06:45:54.699Z,11.07
2019-03-13T06:48:44.509Z,11.31
2019-03-13T06:51:34.680Z,11.19
2019-03-13T06:54:24.467Z,10.97
2019-03-13T06:57:14.332Z,10.87
2019-03-13T07:00:23.179Z,11.04
2019-03-13T07:03:47.577Z,11.37
2019-03-13T07:06:47.439Z,11.73
2019-03-13T07:09:54.254Z,12.28
2019-03-13T07:13:08.556Z,12.21
2019-03-13T07:16:17.196Z,12.17
2019-03-13T07:19:21.541Z,12.30
2019-03-13T07:22:23.257Z,12.50
2019-03-13T07:25:35.653Z,12.67
2019-03-13T07:28:32.672Z,12.65
2019-03-13T07:31:50.699Z,12.43
2019-03-13T07:35:04.902Z,12.27
2019-03-13T07:38:17.633Z,12.18
2019-03-13T07:41:29.104Z,12.02
2019-03-13T07:44:36.990Z,11.85
2019-03-13T07:47:44.886Z,11.67
2019-03-13T07:50:43.464Z,11.50
2019-03-13T07:53:47.369Z,11.40
2019-03-13T07:57:08.217Z,11.46
2019-03-13T08:00:23.380Z,11.55
2019-03-13T08:03:36.883Z,11.50
2019-03-13T08:06:50.408Z,11.77
2019-03-13T08:09:59.337Z,11.79
2019-03-13T08:13:09.910Z,11.63
2019-03-13T08:16:13.306Z,11.61
2019-03-13T08:19:40.820Z,11.46
2019-03-13T08:22:55.371Z,11.38
2019-03-13T08:26:06.107Z,11.28
2019-03-13T08:29:08.401Z,11.17
2019-03-13T08:32:32.202Z,11.12
2019-03-13T08:35:31.767Z,11.15
2019-03-13T08:38:39.378Z,11.02
2019-03-13T08:41:51.409Z,11.10
2019-03-13T08:45:08.195Z,11.04
2019-03-13T08:48:17.108Z,11.10
2019-03-13T08:51:29.334Z,11.05
2019-03-13T08:54:28.822Z,11.13
2019-03-13T08:57:43.967Z,11.19
2019-03-13T09:00:51.484Z,11.26
2019-03-13T09:03:51.205Z,11.36
2019-03-13T09:06:52.691Z,11.45
2019-03-13T09:09:52.275Z,11.48
2019-03-13T09:12:55.135Z,11.51
2019-03-13T09:15:58.235Z,11.48
2019-03-13T09:18:57.247Z,11.53
2019-03-13T09:22:08.892Z,11.44
2019-03-13T09:25:26.915Z,11.42
2019-03-13T09:28:37.144Z,11.27
2019-03-13T09:31:45.214Z,11.30
2019-03-13T09:34:54.048Z,11.26
2019-03-13T09:38:00.837Z,11.19
2019-03-13T09:41:06.404Z,11.21
2019-03-13T09:44:27.552Z,11.26
2019-03-13T09:47:42.155Z,11.33
2019-03-13T09:50:40.480Z,11.26
2019-03-13T09:53:35.657Z,11.32
2019-03-13T09:56:33.114Z,11.43
2019-03-13T09:59:43.556Z,11.52
2019-03-13T10:02:41.899Z,11.85
2019-03-13T10:05:54.262Z,12.04
2019-03-13T10:09:02.914Z,12.14
2019-03-13T10:12:06.941Z,12.30
2019-03-13T10:15:08.085Z,12.49
2019-03-13T10:18:19.621Z,12.74
2019-03-13T10:21:28.884Z,12.93
2019-03-13T10:24:40.989Z,12.74
2019-03-13T10:27:42.619Z,12.52
2019-03-13T10:30:40.312Z,12.40
2019-03-13T10:33:37.746Z,12.35
2019-03-13T10:36:50.578Z,12.25
2019-03-13T10:39:52.037Z,12.20
2019-03-13T10:43:10.912Z,12.09
2019-03-13T10:46:11.943Z,11.99
2019-03-13T10:49:15.011Z,11.96
2019-03-13T10:52:13.093Z,12.68
2019-03-13T10:55:22.106Z,14.27
2019-03-13T10:58:30.506Z,15.76
2019-03-13T11:01:27.592Z,17.21
2019-03-13T11:04:42.616Z,18.23
2019-03-13T11:07:51.811Z,19.00
2019-03-13T11:10:51.912Z,20.14
2019-03-13T11:14:14.198Z,20.87
2019-03-13T11:16:57.928Z,21.24
2019-03-13T11:20:09.086Z,21.47
2019-03-13T11:23:20.937Z,21.68
2019-03-13T11:26:26.840Z,22.13
2019-03-13T11:29:38.217Z,23.00
2019-03-13T11:32:38.559Z,22.90
2019-03-13T11:35:38.883Z,23.07
2019-03-13T11:39:00.278Z,22.94
2019-03-13T11:42:13.987Z,23.40
2019-03-13T11:45:22.434Z,23.28
2019-03-13T11:48:37.504Z,23.02
2019-03-13T11:51:53.234Z,22.50
2019-03-13T11:54:55.285Z,21.21
2019-03-13T11:58:07.363Z,20.30
2019-03-13T12:01:18.230Z,19.44
2019-03-13T12:04:22.277Z,18.61
2019-03-13T12:07:22.316Z,17.80
2019-03-13T12:10:24.997Z,16.94
2019-03-13T12:13:22.662Z,16.48
2019-03-13T12:16:22.785Z,16.04
2019-03-13T12:19:37.736Z,15.43
2019-03-13T12:22:37.468Z,15.15
2019-03-13T12:25:45.141Z,14.83
2019-03-13T12:28:57.091Z,14.44
2019-03-13T12:31:59.441Z,14.15
2019-03-13T12:35:01.303Z,13.89
2019-03-13T12:38:28.584Z,13.80
2019-03-13T12:41:36.672Z,13.75
2019-03-13T12:44:44.200Z,13.61
2019-03-13T12:47:52.151Z,13.49
2019-03-13T12:50:51.279Z,13.37
2019-03-13T12:53:59.089Z,13.32
2019-03-13T12:57:06.559Z,13.37
2019-03-13T13:00:15.578Z,13.27
2019-03-13T13:03:28.177Z,13.39
2019-03-13T13:06:44.409Z,13.36
2019-03-13T13:09:51.974Z,13.47
2019-03-13T13:12:59.873Z,13.60
2019-03-13T13:16:24.115Z,13.66
2019-03-13T13:19:14.063Z,13.68
2019-03-13T13:22:04.313Z,13.69
2019-03-13T13:24:54.057Z,13.80
2019-03-13T13:27:44.981Z,13.82
2019-03-13T13:30:34.639Z,13.80
2019-03-13T13:33:24.575Z,13.80
2019-03-13T13:36:15.134Z,13.84
2019-03-13T13:39:06.785Z,13.73
2019-03-13T13:41:58.290Z,13.73
2019-03-13T13:44:48.621Z,13.64
2019-03-13T13:47:38.737Z,13.42
2019-03-13T13:50:29.026Z,13.36
2019-03-13T13:53:19.235Z,13.35
2019-03-13T13:56:09.031Z,13.30
2019-03-13T13:59:02.363Z,13.28
2019-03-13T14:01:52.681Z,13.20
2019-03-13T14:04:42.164Z,13.14
2019-03-13T14:07:32.182Z,13.18
2019-03-13T14:10:22.604Z,13.16
2019-03-13T14:13:12.158Z,13.11
2019-03-13T14:16:02.126Z,13.07
2019-03-13T14:18:52.932Z,13.00
2019-03-13T14:21:42.852Z,12.99
2019-03-13T14:24:32.975Z,12.95
2019-03-13T14:27:22.844Z,12.90
2019-03-13T14:30:13.371Z,12.95
2019-03-13T14:33:03.488Z,12.94
2019-03-13T14:35:53.622Z,12.91
2019-03-13T14:38:43.457Z,12.87
2019-03-13T14:41:33.545Z,12.85
2019-03-13T14:44:23.326Z,12.80
2019-03-13T14:47:13.728Z,12.70
2019-03-13T14:50:04.203Z,12.75
2019-03-13T14:52:54.024Z,12.79
2019-03-13T14:55:44.436Z,12.84
2019-03-13T14:58:33.989Z,12.80
2019-03-13T15:01:24.121Z,12.79
2019-03-13T15:04:13.871Z,12.76
2019-03-13T15:07:04.071Z,12.68
2019-03-13T15:09:54.160Z,12.74
2019-03-13T15:12:44.575Z,12.71
2019-03-13T15:15:34.299Z,12.66
2019-03-13T15:18:24.489Z,12.62
2019-03-13T15:21:14.766Z,12.69
2019-03-13T15:24:04.700Z,12.76
2019-03-13T15:26:54.747Z,12.71
2019-03-13T15:29:45.485Z,12.73
2019-03-13T15:32:37.958Z,12.71
2019-03-13T15:35:27.799Z,12.65
2019-03-13T15:38:18.821Z,12.63
2019-03-13T15:41:09.210Z,12.66
2019-03-13T15:43:59.425Z,12.54
2019-03-13T15:46:49.379Z,12.47
2019-03-13T15:49:38.893Z,12.47
2019-03-13T15:52:29.179Z,12.43
2019-03-13T15:55:19.507Z,12.39
2019-03-13T15:58:09.710Z,12.43
2019-03-13T16:01:00.198Z,12.36
2019-03-13T16:03:50.052Z,12.38
2019-03-13T16:06:40.245Z,12.29
2019-03-13T16:09:30.591Z,12.30
2019-03-13T16:12:20.816Z,12.29
2019-03-13T16:15:14.637Z,12.31
2019-03-13T16:18:04.351Z,12.35
2019-03-13T16:20:54.095Z,12.24
2019-03-13T16:23:43.911Z,12.28
2019-03-13T16:26:34.302Z,12.32
2019-03-13T16:29:23.778Z,12.22
2019-03-13T16:32:15.190Z,12.20
2019-03-13T16:35:05.994Z,12.20
2019-03-13T16:37:56.144Z,12.07
2019-03-13T16:40:45.788Z,12.10
2019-03-13T16:43:35.467Z,12.02
2019-03-13T16:46:33.666Z,12.09
2019-03-13T16:49:24.395Z,11.97
2019-03-13T16:52:14.531Z,11.97
2019-03-13T16:55:04.770Z,11.97
2019-03-13T16:57:54.583Z,11.82
2019-03-13T17:00:44.777Z,11.89
2019-03-13T17:03:35.147Z,11.87
2019-03-13T17:06:25.277Z,11.95
2019-03-13T17:09:15.451Z,11.96
2019-03-13T17:12:05.640Z,11.97
2019-03-13T17:14:55.798Z,11.98
2019-03-13T17:17:46.002Z,11.96
2019-03-13T17:20:36.405Z,11.96
2019-03-13T17:23:26.506Z,11.92
2019-03-13T17:26:16.586Z,11.81
2019-03-13T17:29:06.549Z,11.74
2019-03-13T17:31:55.909Z,11.65
2019-03-13T17:34:46.070Z,11.56
2019-03-13T17:37:35.310Z,11.62
2019-03-13T17:40:25.920Z,11.64
2019-03-13T17:43:15.976Z,11.63
2019-03-13T17:46:07.358Z,11.52
2019-03-13T17:48:57.569Z,8.98
2019-03-13T17:51:48.521Z,11.50
2019-03-13T17:54:38.580Z,11.36
2019-03-13T17:57:29.722Z,11.30
2019-03-13T18:00:33.061Z,11.33
2019-03-13T18:03:23.902Z,11.32
2019-03-13T18:06:14.067Z,11.38
2019-03-13T18:09:05.917Z,11.34
2019-03-13T18:11:57.346Z,11.33
2019-03-13T18:14:47.349Z,11.33
2019-03-13T18:17:36.785Z,11.41
2019-03-13T18:20:26.577Z,11.39
2019-03-13T18:23:16.323Z,11.36
2019-03-13T18:26:05.938Z,11.21
2019-03-13T18:28:55.689Z,11.20
2019-03-13T18:31:48.365Z,11.18
2019-03-13T18:34:38.561Z,11.14
2019-03-13T18:37:28.435Z,11.23
2019-03-13T18:40:18.929Z,11.20
2019-03-13T18:43:09.067Z,11.23
2019-03-13T18:45:58.962Z,11.20
2019-03-13T18:48:48.853Z,11.22
2019-03-13T18:51:39.037Z,11.25
2019-03-13T18:54:28.933Z,11.19
2019-03-13T18:57:18.958Z,11.12
2019-03-13T19:00:14.638Z,11.02
2019-03-13T19:03:05.042Z,10.89
2019-03-13T19:05:54.943Z,10.89
2019-03-13T19:08:45.165Z,10.88
2019-03-13T19:11:35.132Z,10.85
2019-03-13T19:14:24.471Z,10.80
2019-03-13T19:17:14.160Z,10.77
2019-03-13T19:20:04.575Z,10.81
2019-03-13T19:22:54.622Z,10.73
2019-03-13T19:25:44.405Z,10.72
2019-03-13T19:28:34.366Z,10.66
2019-03-13T19:31:23.985Z,10.63
2019-03-13T19:34:13.794Z,10.59
2019-03-13T19:37:03.661Z,10.58
2019-03-13T19:39:52.752Z,10.50
2019-03-13T19:42:42.145Z,10.49
2019-03-13T19:45:34.526Z,10.42
2019-03-13T19:48:24.318Z,10.40
2019-03-13T19:51:14.065Z,10.41
2019-03-13T19:54:03.606Z,10.32
2019-03-13T19:56:53.694Z,10.40
2019-03-13T19:59:43.831Z,10.38
2019-03-13T20:02:33.733Z,10.42
2019-03-13T20:05:23.613Z,10.39
2019-03-13T20:08:14.186Z,10.39
2019-03-13T20:11:04.472Z,10.39
2019-03-13T20:13:53.590Z,10.33
2019-03-13T20:16:46.496Z,10.35
2019-03-13T20:19:35.115Z,10.29
2019-03-13T20:22:25.409Z,10.22
2019-03-13T20:25:17.727Z,10.21
2019-03-13T20:28:07.909Z,10.25
2019-03-13T20:30:57.839Z,10.28
2019-03-13T20:33:47.767Z,10.25
2019-03-13T20:36:37.636Z,10.22
2019-03-13T20:39:28.054Z,10.22
2019-03-13T20:42:17.322Z,10.24
2019-03-13T20:45:08.805Z,10.25
2019-03-13T20:47:59.310Z,10.26
2019-03-13T20:50:49.080Z,10.26
2019-03-13T20:53:39.273Z,10.25
2019-03-13T20:56:29.375Z,10.21
2019-03-13T20:59:19.650Z,10.23
2019-03-13T21:02:09.656Z,10.20
2019-03-13T21:04:59.423Z,10.14
2019-03-13T21:07:50.494Z,10.17
2019-03-13T21:10:40.756Z,10.11
2019-03-13T21:13:30.723Z,10.05
2019-03-13T21:16:20.812Z,10.00
2019-03-13T21:19:10.621Z,10.01
2019-03-13T21:22:00.145Z,10.06
2019-03-13T21:24:51.157Z,10.07
2019-03-13T21:27:40.782Z,9.96
2019-03-13T21:30:31.100Z,10.01
2019-03-13T21:33:21.197Z,10.04
2019-03-13T21:36:11.489Z,9.94
2019-03-13T21:39:01.060Z,9.96
2019-03-13T21:41:52.452Z,10.01
2019-03-13T21:44:42.363Z,9.95
2019-03-13T21:47:32.625Z,9.88
2019-03-13T21:50:24.557Z,9.88
2019-03-13T21:53:14.504Z,9.80
2019-03-13T21:56:05.642Z,9.84
2019-03-13T21:58:55.604Z,9.78
2019-03-13T22:01:45.355Z,9.75
2019-03-13T22:04:35.676Z,9.74
2019-03-13T22:07:25.179Z,9.71
2019-03-13T22:10:15.537Z,9.71
2019-03-13T22:13:05.484Z,9.73
2019-03-13T22:15:58.557Z,9.76
2019-03-13T22:18:48.492Z,9.74
2019-03-13T22:21:38.646Z,9.71
2019-03-13T22:24:28.521Z,9.77
2019-03-13T22:27:18.328Z,9.75
2019-03-13T22:30:15.468Z,9.79
2019-03-13T22:33:05.894Z,9.77
2019-03-13T22:35:55.205Z,9.71
2019-03-13T22:38:45.445Z,9.78
2019-03-13T22:41:36.743Z,9.82
2019-03-13T22:44:26.767Z,9.84
2019-03-13T22:47:16.685Z,9.86
2019-03-13T22:50:06.988Z,9.93
2019-03-13T22:52:56.559Z,9.97
2019-03-13T22:55:46.503Z,10.00
2019-03-13T22:58:36.642Z,10.06
2019-03-13T23:01:26.756Z,10.12
2019-03-13T23:04:17.383Z,10.11
2019-03-13T23:07:07.117Z,10.01
2019-03-13T23:09:57.554Z,10.08
2019-03-13T23:12:47.288Z,10.06
2019-03-13T23:15:37.069Z,10.07
2019-03-13T23:18:27.020Z,10.03
2019-03-13T23:21:17.154Z,9.97
2019-03-13T23:24:07.109Z,9.99
2019-03-13T23:26:56.595Z,10.04
2019-03-13T23:29:46.301Z,9.99
2019-03-13T23:32:36.252Z,10.02
2019-03-13T23:35:26.134Z,9.98
2019-03-13T23:38:15.438Z,10.02
2019-03-13T23:41:05.380Z,9.97
2019-03-13T23:43:55.602Z,10.05
2019-03-13T23:46:45.383Z,10.04
2019-03-13T23:49:35.234Z,9.99
2019-03-13T23:52:25.976Z,9.97
2019-03-13T23:55:16.102Z,9.95
2019-03-13T23:58:07.093Z,9.94
